Time;durP1;ratioP1;P1;durP2;ratioP2;P2;SDS_P1;SDS_P2;PMS_P1;PMS_P2;Temp;Humidity;BMP_temperature;BMP_pressure;BME280_temperature;BME280_humidity;BME280_pressure;Samples;Min_cycle;Max_cycle;Signal;HPM_P1;HPM_P2
2022/10/10 00:00:12;;;;;;;7.20;1.90;;;;;;;17.89;52.87;101237.44;4941817;29;20451;-83
2022/10/10 00:02:57;;;;;;;6.50;2.10;;;;;;;17.76;52.47;101235.13;4939300;29;20054;-87
2022/10/10 00:05:42;;;;;;;3.05;1.83;;;;;;;17.74;52.99;101237.41;4939347;29;20058;-83
2022/10/10 00:08:27;;;;;;;4.97;2.20;;;;;;;17.67;52.88;101235.28;4940446;29;20510;-83
2022/10/10 00:11:13;;;;;;;7.13;2.25;;;;;;;17.65;53.34;101236.78;4938282;29;20051;-84
2022/10/10 00:13:58;;;;;;;4.20;2.08;;;;;;;17.60;53.25;101224.06;4944766;29;20059;-83
2022/10/10 00:16:43;;;;;;;5.03;1.95;;;;;;;17.66;53.30;101236.44;4944739;29;20059;-84
2022/10/10 00:19:29;;;;;;;4.47;2.00;;;;;;;17.65;52.97;101231.25;4939796;29;20051;-83
2022/10/10 00:22:14;;;;;;;9.43;2.20;;;;;;;17.66;52.57;101235.63;4944999;29;20071;-84
2022/10/10 00:24:58;;;;;;;3.25;2.13;;;;;;;17.56;53.29;101239.66;4942628;29;20423;-85
2022/10/10 00:27:43;;;;;;;9.90;2.47;;;;;;;17.69;52.81;101232.97;4946961;29;20055;-85
2022/10/10 00:30:28;;;;;;;8.02;2.03;;;;;;;17.76;52.84;101233.16;4943674;29;20439;-85
2022/10/10 00:33:13;;;;;;;9.38;2.30;;;;;;;17.66;53.01;101235.63;4959818;29;20063;-89
2022/10/10 00:35:58;;;;;;;3.20;2.05;;;;;;;17.59;52.45;101235.38;4986786;23;20054;-77
2022/10/10 00:38:43;;;;;;;4.57;2.05;;;;;;;17.64;52.68;101230.47;4975183;28;20050;-79
2022/10/10 00:41:28;;;;;;;3.85;2.13;;;;;;;17.65;52.78;101232.06;4993465;28;20521;-77
2022/10/10 00:44:14;;;;;;;3.92;2.28;;;;;;;17.62;52.49;101232.78;4987906;28;20049;-77
2022/10/10 00:46:59;;;;;;;2.55;1.80;;;;;;;17.61;52.69;101236.69;4994871;28;20072;-77
2022/10/10 00:49:43;;;;;;;4.53;2.00;;;;;;;17.61;52.47;101233.94;4998849;28;20513;-77
2022/10/10 00:52:28;;;;;;;6.05;2.55;;;;;;;17.61;52.45;101235.88;4994718;28;20057;-77
2022/10/10 00:55:14;;;;;;;3.90;2.45;;;;;;;17.58;52.39;101220.81;4978671;28;20058;-76
2022/10/10 00:58:00;;;;;;;8.23;1.88;;;;;;;17.71;51.87;101224.38;4974146;28;20049;-76
2022/10/10 01:00:45;;;;;;;9.85;2.70;;;;;;;17.70;52.07;101226.31;4974919;28;20050;-76
2022/10/10 01:03:29;;;;;;;5.05;2.35;;;;;;;17.72;51.83;101217.72;4974447;28;20525;-76
2022/10/10 01:06:15;;;;;;;5.35;2.03;;;;;;;17.73;51.92;101220.09;4968702;28;20049;-77
2022/10/10 01:08:59;;;;;;;;;;;;;;;17.75;51.82;101219.75;4971874;28;20069;-76
2022/10/10 01:11:48;;;;;;;3.65;1.80;;;;;;;17.76;51.09;101221.38;4967717;28;20461;-78
2022/10/10 01:14:51;;;;;;;12.30;1.92;;;;;;;17.77;51.11;101221.03;4966572;28;20054;-76
2022/10/10 01:17:50;;;;;;;5.57;1.67;;;;;;;17.66;51.86;101213.63;4968586;28;20046;-77
2022/10/10 01:20:35;;;;;;;4.57;1.35;;;;;;;17.49;52.52;101217.44;4968457;28;20421;-78
2022/10/10 01:23:49;;;;;;;2.78;1.80;;;;;;;17.34;53.63;101220.91;4966344;28;20066;-78
2022/10/10 01:26:56;;;;;;;7.70;2.22;;;;;;;17.34;54.40;101215.41;4974484;28;20050;-77
2022/10/10 01:29:49;;;;;;;3.25;1.77;;;;;;;17.45;54.33;101200.84;4961668;28;20049;-78
2022/10/10 01:32:53;;;;;;;3.88;2.28;;;;;;;17.39;55.31;101195.94;4968066;28;20097;-77
2022/10/10 01:35:50;;;;;;;4.72;2.00;;;;;;;17.32;55.51;101190.25;4976702;28;20115;-78
2022/10/10 01:38:44;;;;;;;5.65;1.90;;;;;;;17.36;55.51;101208.44;4978850;28;20053;-79
2022/10/10 01:41:40;;;;;;;6.03;2.25;;;;;;;17.16;56.57;101203.13;4972159;28;20043;-79
2022/10/10 01:44:24;;;;;;;13.60;2.92;;;;;;;17.00;56.83;101206.59;4976417;28;20057;-79
2022/10/10 01:47:10;;;;;;;7.95;2.97;;;;;;;17.03;56.90;101203.13;4970643;28;20494;-76
2022/10/10 01:50:00;;;;;;;8.50;4.07;;;;;;;16.87;57.26;101198.69;4964166;28;20050;-77
2022/10/10 01:53:01;;;;;;;8.48;2.72;;;;;;;17.07;57.54;101195.78;4962425;28;20414;-78
2022/10/10 01:56:06;;;;;;;7.50;2.75;;;;;;;17.03;57.74;101199.56;4967740;28;20139;-78
2022/10/10 01:58:54;;;;;;;9.38;2.50;;;;;;;17.03;57.28;101197.63;4978838;28;20058;-78
2022/10/10 02:01:53;;;;;;;5.65;2.30;;;;;;;17.04;57.24;101198.44;4974947;28;20049;-78
2022/10/10 02:05:05;;;;;;;8.65;2.72;;;;;;;17.07;56.67;101194.97;4969233;28;20065;-78
2022/10/10 02:07:57;;;;;;;3.05;2.10;;;;;;;17.22;55.79;101179.75;4977374;28;20073;-78
2022/10/10 02:10:49;;;;;;;6.30;2.95;;;;;;;17.33;55.00;101189.06;4963391;28;20043;-77
2022/10/10 02:13:41;;;;;;;5.57;2.47;;;;;;;17.43;54.08;101191.31;4967586;28;20049;-78
2022/10/10 02:16:36;;;;;;;4.78;1.90;;;;;;;17.41;53.89;101197.19;4970147;28;20545;-76
2022/10/10 02:19:21;;;;;;;;;;;;;;;17.48;53.42;101197.38;4965809;28;20050;-78
2022/10/10 02:22:06;;;;;;;9.80;1.50;;;;;;;17.46;53.04;101190.66;4971112;28;20317;-76
2022/10/10 02:24:52;;;;;;;3.88;1.92;;;;;;;17.48;53.27;101188.31;4966889;28;20065;-78
2022/10/10 02:27:45;;;;;;;3.13;1.80;;;;;;;17.41;53.69;101188.16;4974392;28;20050;-78
2022/10/10 02:30:34;;;;;;;7.28;2.42;;;;;;;17.45;53.84;101186.28;4976068;28;20070;-78
2022/10/10 02:33:25;;;;;;;12.27;3.63;;;;;;;17.44;54.35;101187.44;4973790;28;20049;-78
2022/10/10 02:36:12;;;;;;;4.78;2.42;;;;;;;17.32;54.67;101187.50;4972996;28;20043;-77
2022/10/10 02:38:58;;;;;;;7.15;2.53;;;;;;;17.41;54.31;101180.69;4957902;28;20054;-77
2022/10/10 02:41:47;;;;;;;5.55;3.15;;;;;;;17.47;54.02;101186.75;4969655;28;20054;-77
2022/10/10 02:44:32;;;;;;;6.15;2.33;;;;;;;17.34;54.65;101187.94;4973670;28;20054;-76
2022/10/10 02:47:17;;;;;;;9.93;2.30;;;;;;;17.31;54.44;101183.94;4975405;28;20525;-77
2022/10/10 02:50:01;;;;;;;;;;;;;;;17.43;54.02;101191.31;4975069;28;20049;-76
2022/10/10 02:52:46;;;;;;;3.53;1.98;;;;;;;17.31;54.64;101183.94;4981652;28;19914;-78
2022/10/10 02:55:31;;;;;;;8.95;2.85;;;;;;;17.24;55.20;101189.22;4977683;28;20529;-76
2022/10/10 02:58:16;;;;;;;6.07;2.08;;;;;;;17.25;54.92;101190.81;4983579;28;20049;-77
2022/10/10 03:01:01;;;;;;;5.45;2.05;;;;;;;17.33;55.29;101181.63;4997014;28;20050;-76
2022/10/10 03:03:46;;;;;;;1.73;1.33;;;;;;;17.28;55.21;101183.81;4997113;28;20054;-78
2022/10/10 03:06:30;;;;;;;7.72;2.25;;;;;;;17.23;55.11;101187.63;4997544;28;20410;-79
2022/10/10 03:09:15;;;;;;;;;;;;;;;17.34;54.93;101188.72;4990029;28;20074;-77
2022/10/10 03:12:00;;;;;;;3.08;1.38;;;;;;;17.26;55.28;101177.88;4967651;28;19915;-76
2022/10/10 03:14:45;;;;;;;8.10;2.78;;;;;;;17.34;55.06;101188.72;4981145;28;20080;-77
2022/10/10 03:17:30;;;;;;;6.85;2.05;;;;;;;17.20;55.78;101182.81;4975918;28;20049;-77
2022/10/10 03:20:14;;;;;;;6.20;2.60;;;;;;;17.16;56.17;101189.38;4977623;28;20053;-77
2022/10/10 03:22:59;;;;;;;;;;;;;;;17.09;56.98;101201.75;4970475;28;20418;-79
2022/10/10 03:25:44;;;;;;;4.22;2.05;;;;;;;16.98;56.92;101186.88;4975969;28;19914;-76
2022/10/10 03:28:29;;;;;;;7.07;2.15;;;;;;;16.98;56.85;101191.56;4976648;28;20049;-76
2022/10/10 03:31:14;;;;;;;5.10;1.98;;;;;;;17.09;56.69;101193.50;4972156;28;20050;-76
2022/10/10 03:33:58;;;;;;;3.38;1.52;;;;;;;17.02;56.19;101187.78;4970510;28;20058;-76
2022/10/10 03:36:43;;;;;;;5.20;2.30;;;;;;;17.12;55.71;101180.22;4969910;28;20053;-77
2022/10/10 03:39:28;;;;;;;7.18;2.30;;;;;;;17.17;55.85;101185.47;4971044;28;20045;-78
2022/10/10 03:42:13;;;;;;;2.92;1.88;;;;;;;17.10;55.87;101189.63;4976029;28;20529;-76
2022/10/10 03:44:58;;;;;;;;;;;;;;;17.08;55.98;101191.09;4980278;28;20054;-76
2022/10/10 03:47:42;;;;;;;6.93;2.28;;;;;;;17.08;55.47;101186.41;4976408;28;19914;-77
2022/10/10 03:50:27;;;;;;;;;;;;;;;17.19;55.30;101180.41;4983897;28;20049;-76
2022/10/10 03:53:11;;;;;;;11.25;2.83;;;;;;;17.16;54.65;101181.13;4978896;28;19917;-77
2022/10/10 03:55:56;;;;;;;;;;;;;;;17.28;54.01;101178.31;4967570;28;20039;-76
2022/10/10 03:58:41;;;;;;;4.80;1.73;;;;;;;17.15;54.53;101185.81;4968658;28;19914;-76
2022/10/10 04:01:27;;;;;;;6.00;1.80;;;;;;;17.15;54.72;101177.56;4973137;28;20063;-76
2022/10/10 04:04:11;;;;;;;4.05;1.95;;;;;;;17.16;54.43;101181.13;4967599;28;20070;-76
2022/10/10 04:06:56;;;;;;;;;;;;;;;17.10;54.95;101180.56;4973431;28;20050;-76
2022/10/10 04:09:40;;;;;;;3.80;2.05;;;;;;;16.91;55.76;101183.13;4974606;28;19914;-75
2022/10/10 04:12:25;;;;;;;7.00;2.22;;;;;;;17.01;55.56;101180.72;4956447;29;20046;-77
2022/10/10 04:15:10;;;;;;;4.47;2.03;;;;;;;16.98;55.92;101180.59;4957534;28;20050;-76
2022/10/10 04:17:55;;;;;;;4.10;1.85;;;;;;;16.89;56.48;101175.22;4957420;28;20051;-79
2022/10/10 04:20:39;;;;;;;5.68;2.33;;;;;;;16.86;56.41;101178.69;4962857;28;20046;-79
2022/10/10 04:23:23;;;;;;;3.33;1.75;;;;;;;16.65;57.41;101178.81;4971207;28;20069;-79
2022/10/10 04:26:08;;;;;;;2.95;1.63;;;;;;;16.72;57.42;101178.22;4970856;28;20050;-79
2022/10/10 04:28:52;;;;;;;10.63;2.08;;;;;;;16.77;57.46;101182.69;4986506;28;20057;-79
2022/10/10 04:31:37;;;;;;;5.05;1.60;;;;;;;16.87;56.99;101173.97;4998352;28;20042;-79
2022/10/10 04:34:22;;;;;;;;;;;;;;;16.90;57.07;101182.34;4997306;28;20130;-79
2022/10/10 04:37:06;;;;;;;4.53;1.75;;;;;;;17.07;56.54;101173.81;4984004;28;19914;-79
2022/10/10 04:39:51;;;;;;;3.20;2.05;;;;;;;17.17;56.57;101178.00;4971347;28;20054;-79
2022/10/10 04:42:36;;;;;;;4.35;1.90;;;;;;;17.22;55.64;101169.53;4970842;28;20066;-78
2022/10/10 04:45:21;;;;;;;6.45;2.95;;;;;;;17.33;55.87;101178.06;4970423;28;20046;-79
2022/10/10 04:48:06;;;;;;;5.03;1.60;;;;;;;17.37;55.43;101173.50;4972930;28;20130;-76
2022/10/10 04:50:52;;;;;;;6.13;1.95;;;;;;;17.49;55.80;101181.69;4968083;28;20049;-77
2022/10/10 04:53:37;;;;;;;3.95;2.20;;;;;;;17.51;56.24;101177.44;4975048;28;20058;-77
2022/10/10 04:56:24;;;;;;;7.40;1.90;;;;;;;17.54;56.48;101173.97;4968677;28;20054;-77
2022/10/10 04:59:09;;;;;;;3.40;1.98;;;;;;;17.46;56.30;101163.94;4979425;28;20050;-78
2022/10/10 05:01:54;;;;;;;8.48;2.05;;;;;;;17.27;56.56;101163.00;4985854;28;20434;-78
2022/10/10 05:04:39;;;;;;;5.85;2.17;;;;;;;17.34;56.06;101161.25;4978652;28;20050;-77
2022/10/10 05:07:24;;;;;;;6.28;2.03;;;;;;;17.38;56.38;101164.88;4963972;28;20046;-77
2022/10/10 05:10:08;;;;;;;5.88;1.92;;;;;;;17.37;56.04;101176.25;4967100;28;20050;-77
2022/10/10 05:12:53;;;;;;;;;;;;;;;17.42;55.74;101174.03;4971739;28;20054;-76
2022/10/10 05:15:38;;;;;;;6.60;2.38;;;;;;;17.38;55.85;101172.31;4973091;28;19914;-76
2022/10/10 05:18:23;;;;;;;8.10;2.33;;;;;;;17.36;55.45;101174.66;4971347;28;20057;-75
2022/10/10 05:21:10;;;;;;;7.53;3.08;;;;;;;17.39;56.13;101177.47;4974629;28;20045;-77
2022/10/10 05:23:55;;;;;;;13.00;2.38;;;;;;;17.44;56.26;101182.72;4971441;28;20729;-75
2022/10/10 05:26:40;;;;;;;3.80;2.50;;;;;;;17.21;57.74;101181.69;4972254;28;20081;-76
2022/10/10 05:29:24;;;;;;;8.55;2.83;;;;;;;16.72;58.19;101183.72;4965302;28;20070;-77
2022/10/10 05:32:09;;;;;;;6.10;3.28;;;;;;;16.72;59.27;101183.72;4975375;28;20050;-75
2022/10/10 05:34:54;;;;;;;5.57;2.58;;;;;;;16.76;58.61;101179.13;4970831;28;20057;-75
2022/10/10 05:37:38;;;;;;;7.68;2.53;;;;;;;16.84;58.85;101189.22;4976506;28;20049;-76
2022/10/10 05:40:23;;;;;;;5.38;2.42;;;;;;;16.83;59.00;101198.59;4973477;28;20073;-76
2022/10/10 05:43:08;;;;;;;;;;;;;;;16.88;59.22;101198.34;4992297;28;20104;-77
2022/10/10 05:45:53;;;;;;;3.40;2.10;;;;;;;16.71;60.27;101193.09;4993451;28;19914;-76
2022/10/10 05:48:38;;;;;;;6.18;2.25;;;;;;;16.71;60.55;101206.81;4993059;28;20406;-76
2022/10/10 05:51:23;;;;;;;9.65;3.63;;;;;;;16.75;59.34;101207.75;4993684;28;20049;-76
2022/10/10 05:54:08;;;;;;;6.25;2.30;;;;;;;16.95;58.42;101208.75;4997336;28;20417;-76
2022/10/10 05:56:53;;;;;;;12.73;2.35;;;;;;;17.04;58.49;101212.97;4980852;28;20074;-78
2022/10/10 05:59:38;;;;;;;8.68;2.45;;;;;;;17.08;57.80;101204.84;4964914;28;20054;-76
2022/10/10 06:02:23;;;;;;;364.73;26.05;;;;;;;17.17;57.39;101204.72;4968115;28;20119;-78
2022/10/10 06:05:08;;;;;;;12.88;2.03;;;;;;;17.31;57.26;101210.63;4966280;28;20050;-77
2022/10/10 06:07:52;;;;;;;;;;;;;;;17.31;58.42;101210.63;4972186;28;20062;-76
2022/10/10 06:10:40;;;;;;;9.02;2.40;;;;;;;17.33;58.90;101216.56;4968785;28;19914;-76
2022/10/10 06:13:25;;;;;;;10.05;2.85;;;;;;;17.45;58.72;101222.84;4969882;28;20536;-76
2022/10/10 06:16:10;;;;;;;22.10;2.92;;;;;;;17.51;59.00;101218.69;4974749;28;20078;-77
2022/10/10 06:18:58;;;;;;;18.13;3.35;;;;;;;17.47;58.92;101230.75;4973589;28;20065;-76
2022/10/10 06:21:42;;;;;;;14.45;2.60;;;;;;;17.53;58.53;101232.88;4976814;28;20042;-77
2022/10/10 06:24:27;;;;;;;13.18;5.75;;;;;;;17.48;58.42;101238.63;4974875;28;20054;-76
2022/10/10 06:27:11;;;;;;;10.48;3.70;;;;;;;17.24;57.72;101238.69;4974783;28;20050;-76
2022/10/10 06:29:56;;;;;;;8.95;2.38;;;;;;;17.12;58.61;101235.97;4976022;28;20079;-77
2022/10/10 06:32:40;;;;;;;16.75;3.38;;;;;;;17.03;60.14;101244.34;4966179;28;20065;-75
2022/10/10 06:35:25;;;;;;;;;;;;;;;17.40;60.00;101247.81;5002849;23;20054;-78
2022/10/10 06:38:11;;;;;;;9.98;3.00;;;;;;;17.51;56.97;101245.38;4974439;28;19922;-78
2022/10/10 06:41:00;;;;;;;6.18;3.33;;;;;;;17.36;56.70;101249.69;4999404;28;20050;-78
2022/10/10 06:43:45;;;;;;;13.07;2.80;;;;;;;17.28;57.00;101247.03;4967063;28;20077;-76
2022/10/10 06:46:29;;;;;;;19.80;3.45;;;;;;;17.41;56.45;101248.63;4974923;28;20047;-79
2022/10/10 06:49:14;;;;;;;17.17;4.60;;;;;;;17.68;55.19;101245.09;4972395;28;20043;-79
2022/10/10 06:51:59;;;;;;;;;;;;;;;17.85;55.02;101244.81;4966472;28;20050;-77
2022/10/10 06:54:43;;;;;;;16.77;3.80;;;;;;;18.01;55.66;101255.06;4967642;28;19915;-77
2022/10/10 06:57:28;;;;;;;13.63;2.80;;;;;;;18.33;53.43;101262.22;4956583;28;20419;-79
2022/10/10 07:00:14;;;;;;;13.93;3.25;;;;;;;18.02;55.48;101256.66;4956970;29;20051;-83
2022/10/10 07:02:59;;;;;;;19.08;5.13;;;;;;;17.83;55.25;101260.06;4966575;29;20046;-82
2022/10/10 07:05:49;;;;;;;16.75;3.33;;;;;;;17.93;54.98;101268.63;4975360;28;20070;-78
2022/10/10 07:08:33;;;;;;;14.43;3.22;;;;;;;17.81;55.57;101252.19;4973249;28;20410;-78
2022/10/10 07:11:19;;;;;;;8.38;3.03;;;;;;;18.20;56.54;101269.75;4973186;28;20046;-85
2022/10/10 07:14:03;;;;;;;14.70;3.90;;;;;;;18.37;55.40;101265.88;4976267;28;20053;-85
2022/10/10 07:16:48;;;;;;;;;;;;;;;18.30;53.65;101273.94;4969627;28;20061;-79
2022/10/10 07:19:35;;;;;;;7.45;2.90;;;;;;;18.68;55.51;101273.38;4970017;28;20301;-80
2022/10/10 07:22:22;;;;;;;12.05;3.33;;;;;;;18.69;56.86;101273.00;4972471;28;20606;-81
2022/10/10 07:25:08;;;;;;;8.55;2.75;;;;;;;18.80;52.58;101279.56;4987053;28;20057;-80
2022/10/10 07:27:55;;;;;;;7.90;2.72;;;;;;;18.86;54.47;101273.78;4976965;28;20521;-82
2022/10/10 07:30:42;;;;;;;6.57;2.10;;;;;;;19.30;52.50;101280.72;4964061;28;20078;-80
2022/10/10 07:33:32;;;;;;;10.48;2.30;;;;;;;19.21;52.03;101280.13;4969684;28;20049;-79
2022/10/10 07:36:18;;;;;;;8.23;2.40;;;;;;;19.38;49.75;101281.69;4985126;28;20061;-77
2022/10/10 07:39:03;;;;;;;15.68;2.70;;;;;;;19.16;53.74;101288.66;4975056;28;20050;-77
2022/10/10 07:41:49;;;;;;;15.15;2.60;;;;;;;19.27;50.64;101298.00;4966972;28;20049;-77
2022/10/10 07:44:33;;;;;;;9.60;2.28;;;;;;;19.64;49.51;101306.72;4976148;28;20039;-78
2022/10/10 07:47:18;;;;;;;18.27;2.95;;;;;;;19.51;48.35;101303.28;4971095;28;20413;-77
2022/10/10 07:50:05;;;;;;;7.13;3.47;;;;;;;19.58;49.04;101306.19;4967502;28;20506;-80
2022/10/10 07:52:49;;;;;;;7.35;2.60;;;;;;;19.13;49.66;101301.22;4966290;28;20054;-79
2022/10/10 07:55:38;;;;;;;7.00;1.83;;;;;;;18.55;50.62;101302.94;4970772;28;20046;-79
2022/10/10 07:58:22;;;;;;;13.20;2.72;;;;;;;18.67;51.29;101296.56;4977642;28;20414;-79
2022/10/10 08:01:09;;;;;;;;;;;;;;;18.89;53.84;101300.66;4979313;28;20454;-77
2022/10/10 08:03:56;;;;;;;7.05;2.80;;;;;;;19.36;49.53;101304.09;4973793;28;19918;-78
2022/10/10 08:06:40;;;;;;;5.60;2.50;;;;;;;19.51;49.22;101296.97;4972483;28;20042;-77
2022/10/10 08:09:25;;;;;;;;;;;;;;;19.59;48.42;101290.44;4975087;28;20053;-78
2022/10/10 08:12:10;;;;;;;9.10;2.40;;;;;;;19.20;49.67;101292.31;4978490;28;19918;-78
2022/10/10 08:14:54;;;;;;;4.82;2.63;;;;;;;19.23;49.60;101299.88;4977001;28;20046;-79
2022/10/10 08:17:39;;;;;;;11.15;3.28;;;;;;;19.54;47.87;101294.28;4975812;28;20053;-78
2022/10/10 08:20:24;;;;;;;11.63;3.55;;;;;;;19.67;48.03;101299.66;4961907;28;20050;-80
2022/10/10 08:23:10;;;;;;;6.15;2.38;;;;;;;19.49;47.26;101297.34;4976908;28;20057;-81
2022/10/10 08:25:58;;;;;;;12.20;3.20;;;;;;;19.16;48.18;101283.97;4974638;28;20054;-82
2022/10/10 08:28:44;;;;;;;13.82;2.25;;;;;;;19.12;48.15;101296.06;4974837;28;20054;-81
2022/10/10 08:31:30;;;;;;;6.53;2.72;;;;;;;19.04;48.89;101292.34;4976587;28;20047;-81
2022/10/10 08:34:14;;;;;;;15.45;3.45;;;;;;;19.56;47.63;101291.97;4974312;28;20046;-81
2022/10/10 08:36:59;;;;;;;5.32;2.53;;;;;;;19.40;47.14;101290.41;4975620;28;20058;-81
2022/10/10 08:39:44;;;;;;;7.88;2.60;;;;;;;19.47;46.73;101285.06;4976078;28;20054;-82
2022/10/10 08:42:37;;;;;;;17.10;3.63;;;;;;;19.59;46.79;101285.72;4973772;28;20054;-82
2022/10/10 08:45:26;;;;;;;5.53;2.30;;;;;;;19.66;46.67;101290.59;4977822;28;20039;-80
2022/10/10 08:48:15;;;;;;;11.23;2.55;;;;;;;19.74;46.77;101286.03;4975823;28;20057;-80
2022/10/10 08:51:10;;;;;;;14.77;2.95;;;;;;;20.55;44.79;101286.78;4974777;28;20043;-79
2022/10/10 08:53:59;;;;;;;3.88;2.38;;;;;;;20.20;45.34;101281.41;4991149;28;20057;-82
2022/10/10 08:56:43;;;;;;;7.88;3.30;;;;;;;20.25;44.77;101284.66;4974640;28;20549;-79
2022/10/10 08:59:34;;;;;;;9.02;2.90;;;;;;;19.70;45.91;101276.88;4979017;28;20054;-80
2022/10/10 09:02:38;;;;;;;15.18;3.97;;;;;;;20.42;44.72;101284.19;4977068;28;20054;-79
2022/10/10 09:05:29;;;;;;;8.07;2.60;;;;;;;20.41;44.88;101268.00;4974227;28;20053;-81
2022/10/10 09:08:23;;;;;;;17.17;3.65;;;;;;;21.13;43.49;101276.28;4977915;28;20046;-83
2022/10/10 09:11:32;;;;;;;5.70;2.90;;;;;;;21.00;43.38;101272.13;4975554;28;20418;-81
2022/10/10 09:14:30;;;;;;;6.28;2.63;;;;;;;20.62;44.31;101271.13;4974436;28;20045;-80
2022/10/10 09:17:26;;;;;;;12.80;3.10;;;;;;;20.90;43.98;101266.06;4970751;28;20049;-82
2022/10/10 09:20:26;;;;;;;10.95;3.08;;;;;;;21.67;41.85;101273.06;4972518;28;20051;-80
2022/10/10 09:23:10;;;;;;;9.05;2.92;;;;;;;22.31;41.39;101277.38;4975566;28;20475;-80
2022/10/10 09:25:58;;;;;;;9.18;3.05;;;;;;;21.95;41.13;101278.97;4968690;28;20119;-80
2022/10/10 09:29:05;;;;;;;11.00;3.70;;;;;;;22.83;39.35;101281.81;4966530;28;20058;-82
2022/10/10 09:32:02;;;;;;;6.90;3.03;;;;;;;23.84;37.74;101291.13;4967356;28;20027;-81
2022/10/10 09:34:53;;;;;;;11.73;3.05;;;;;;;23.74;37.80;101285.53;4974806;28;20057;-81
2022/10/10 09:37:40;;;;;;;12.90;3.15;;;;;;;23.94;36.64;101286.00;4968085;28;20038;-81
2022/10/10 09:40:25;;;;;;;12.38;3.55;;;;;;;22.69;37.90;101276.13;4976833;28;20046;-82
2022/10/10 09:43:17;;;;;;;12.05;3.03;;;;;;;23.26;37.73;101279.34;4981579;28;20054;-82
2022/10/10 09:46:02;;;;;;;13.45;3.10;;;;;;;25.17;34.81;101279.78;4976693;28;20053;-83
2022/10/10 09:48:47;;;;;;;6.43;3.20;;;;;;;24.63;35.54;101275.44;4973387;28;20043;-80
2022/10/10 09:51:32;;;;;;;10.13;2.80;;;;;;;25.35;34.05;101283.28;4975444;28;20045;-83
2022/10/10 09:54:18;;;;;;;7.50;3.25;;;;;;;25.46;34.00;101284.06;4975501;28;20415;-84
2022/10/10 09:57:03;;;;;;;18.70;3.78;;;;;;;26.06;32.91;101285.81;4979188;28;20054;-84
2022/10/10 09:59:48;;;;;;;7.13;3.30;;;;;;;25.64;33.74;101283.25;4966285;28;20049;-83
2022/10/10 10:02:33;;;;;;;13.43;4.00;;;;;;;23.63;36.81;101285.50;4972079;28;20054;-80
2022/10/10 10:05:25;;;;;;;6.00;2.97;;;;;;;23.82;37.54;101287.19;4967464;28;20046;-78
2022/10/10 10:08:18;;;;;;;15.13;4.05;;;;;;;24.62;35.48;101284.97;4976698;28;20049;-77
2022/10/10 10:11:04;;;;;;;10.07;3.30;;;;;;;24.94;35.48;101287.78;4973239;28;20043;-80
2022/10/10 10:13:54;;;;;;;10.02;3.90;;;;;;;24.58;35.29;101279.38;4987521;28;20042;-80
2022/10/10 10:16:39;;;;;;;14.88;3.72;;;;;;;24.37;35.76;101279.41;4970392;28;20053;-79
2022/10/10 10:19:34;;;;;;;6.47;2.92;;;;;;;24.14;36.50;101281.69;4977371;28;20046;-80
2022/10/10 10:22:32;;;;;;;14.68;4.63;;;;;;;23.73;36.99;101286.72;4975101;28;20231;-78
2022/10/10 10:25:36;;;;;;;12.73;3.03;;;;;;;24.91;35.50;101275.44;4981970;28;20049;-79
2022/10/10 10:28:22;;;;;;;7.50;2.90;;;;;;;24.51;36.18;101273.84;4971516;28;20050;-79
2022/10/10 10:31:48;;;;;;;10.20;4.45;;;;;;;24.16;35.84;101270.97;4975432;28;20041;-78
2022/10/10 10:34:32;;;;;;;;;;;;;;;24.13;36.72;101274.53;4967234;28;20495;-76
2022/10/10 10:37:17;;;;;;;7.93;3.63;;;;;;;24.68;35.87;101273.06;4974211;28;19922;-79
2022/10/10 10:40:23;;;;;;;11.07;3.45;;;;;;;24.08;36.46;101277.69;4975108;28;20094;-78
2022/10/10 10:43:27;;;;;;;5.50;2.72;;;;;;;24.62;35.27;101280.19;4972643;28;20050;-79
2022/10/10 10:46:34;;;;;;;28.65;3.17;;;;;;;25.55;33.64;101276.09;4973492;28;20136;-77
2022/10/10 10:49:26;;;;;;;13.18;3.70;;;;;;;24.12;36.44;101272.97;4971439;28;20046;-79
2022/10/10 10:52:35;;;;;;;8.45;3.05;;;;;;;24.58;35.93;101270.28;4975928;28;20034;-80
2022/10/10 10:55:42;;;;;;;11.00;2.67;;;;;;;25.68;33.90;101272.88;4970283;28;20050;-79
2022/10/10 10:58:39;;;;;;;5.80;2.42;;;;;;;24.87;35.00;101271.88;4969609;28;20043;-78
2022/10/10 11:01:57;;;;;;;13.82;2.78;;;;;;;23.96;35.95;101273.31;4984682;28;20053;-80
2022/10/10 11:04:49;;;;;;;14.75;2.75;;;;;;;23.78;37.16;101258.56;4968967;28;20410;-81
2022/10/10 11:07:57;;;;;;;18.88;3.08;;;;;;;24.77;35.17;101255.16;4968829;28;20047;-81
2022/10/10 11:11:00;;;;;;;9.23;3.10;;;;;;;25.29;33.95;101256.28;4968720;28;20034;-82
2022/10/10 11:14:19;;;;;;;12.05;2.88;;;;;;;24.04;36.56;101254.66;4976090;28;20510;-82
2022/10/10 11:17:15;;;;;;;9.40;2.85;;;;;;;24.45;35.69;101247.63;4972844;28;20050;-84
2022/10/10 11:20:14;;;;;;;12.82;2.70;;;;;;;24.78;35.69;101253.97;4977399;28;20536;-83
2022/10/10 11:23:11;;;;;;;9.20;2.58;;;;;;;25.01;34.79;101246.81;4972322;28;20047;-83
2022/10/10 11:26:01;;;;;;;6.70;2.58;;;;;;;24.23;36.97;101237.66;4977772;28;20061;-82
2022/10/10 11:28:57;;;;;;;27.80;3.42;;;;;;;25.32;34.09;101245.13;4973175;28;20038;-83
2022/10/10 11:31:50;;;;;;;12.35;2.70;;;;;;;26.15;32.82;101230.41;4978747;28;20053;-84
2022/10/10 11:34:46;;;;;;;6.63;2.30;;;;;;;27.96;29.95;101246.09;4978097;28;20058;-82
2022/10/10 11:37:36;;;;;;;10.18;2.55;;;;;;;32.73;23.14;101240.66;4970889;28;20501;-81
2022/10/10 11:40:35;;;;;;;3.88;2.17;;;;;;;40.13;15.59;101263.13;4979054;28;20039;-81
2022/10/10 11:43:39;;;;;;;11.25;2.67;;;;;;;40.65;15.00;101265.00;4977547;28;20049;-86
2022/10/10 11:46:34;;;;;;;8.38;2.20;;;;;;;43.96;12.14;101268.25;4979467;28;20039;-83
2022/10/10 11:49:30;;;;;;;7.40;2.65;;;;;;;44.63;11.01;101269.09;4974735;28;20058;-83
2022/10/10 11:52:25;;;;;;;9.05;2.30;;;;;;;45.61;10.17;101258.06;4976036;28;20065;-82
2022/10/10 11:55:28;;;;;;;5.32;2.22;;;;;;;37.39;16.47;101237.34;4976167;28;20119;-82
2022/10/10 11:58:36;;;;;;;9.52;2.70;;;;;;;39.77;14.24;101235.41;4981662;28;20053;-80
2022/10/10 12:01:27;;;;;;;14.23;2.60;;;;;;;38.67;15.33;101233.69;4997921;28;20057;-82
2022/10/10 12:04:13;;;;;;;5.18;2.20;;;;;;;38.39;15.79;101227.63;4976510;28;20423;-82
2022/10/10 12:07:07;;;;;;;6.25;2.10;;;;;;;42.44;12.38;101236.09;4972611;28;20685;-84
2022/10/10 12:09:59;;;;;;;7.88;2.45;;;;;;;39.88;14.62;101223.31;4973497;28;20046;-81
2022/10/10 12:12:47;;;;;;;9.35;2.50;;;;;;;34.85;19.27;101222.31;4975982;28;20038;-83
2022/10/10 12:15:36;;;;;;;8.70;2.17;;;;;;;37.10;16.88;101212.59;4973953;28;20410;-82
2022/10/10 12:18:29;;;;;;;8.23;2.70;;;;;;;38.21;16.22;101212.91;4976063;28;20057;-84
2022/10/10 12:21:17;;;;;;;4.87;2.30;;;;;;;41.87;12.62;101216.72;4975691;28;20122;-84
2022/10/10 12:24:12;;;;;;;21.98;2.55;;;;;;;41.11;13.36;101222.66;4975549;28;20054;-85
2022/10/10 12:26:57;;;;;;;11.80;2.63;;;;;;;37.56;16.21;101210.09;4975672;28;20054;-83
2022/10/10 12:30:08;;;;;;;3.33;2.15;;;;;;;33.86;20.13;101199.00;4979669;28;20045;-84
2022/10/10 12:32:54;;;;;;;9.40;2.15;;;;;;;34.88;19.41;101207.25;4976823;28;20062;-85
2022/10/10 12:35:40;;;;;;;9.13;2.08;;;;;;;36.92;16.44;101209.13;4975333;28;20054;-86
2022/10/10 12:38:27;;;;;;;10.57;2.20;;;;;;;37.84;15.96;101204.09;5011614;23;20054;-84
2022/10/10 12:41:15;;;;;;;4.50;2.00;;;;;;;35.92;18.28;101191.47;4994232;28;20049;-83
2022/10/10 12:44:24;;;;;;;8.15;2.45;;;;;;;39.51;14.89;101201.28;4997605;28;20069;-83
2022/10/10 12:47:15;;;;;;;10.13;2.38;;;;;;;36.72;17.37;101195.59;4997250;28;20057;-84
2022/10/10 12:50:03;;;;;;;5.70;2.38;;;;;;;33.90;19.69;101188.38;4999935;28;20034;-82
2022/10/10 12:52:54;;;;;;;5.35;2.08;;;;;;;38.49;15.79;101185.66;4998048;28;20501;-82
2022/10/10 12:55:47;;;;;;;6.60;2.25;;;;;;;34.42;19.23;101190.25;4998655;28;20049;-81
2022/10/10 12:58:37;;;;;;;11.23;2.28;;;;;;;38.25;15.86;101194.34;4997329;28;20049;-83
2022/10/10 13:01:28;;;;;;;8.18;2.30;;;;;;;32.33;21.63;101191.72;4997902;28;20045;-83
2022/10/10 13:04:16;;;;;;;6.57;2.65;;;;;;;36.24;17.88;101191.97;4998952;28;20049;-82
2022/10/10 13:07:02;;;;;;;4.28;2.35;;;;;;;33.33;20.08;101184.91;4999807;28;20054;-82